createdAt,value
2022-08-10T00:00:02.004Z,5.00
2022-08-10T00:02:33.128Z,4.00
2022-08-10T00:05:01.348Z,6.00
2022-08-10T00:07:29.404Z,6.00
2022-08-10T00:09:57.483Z,5.75
2022-08-10T00:12:49.013Z,5.00
2022-08-10T00:15:52.729Z,5.00
2022-08-10T00:18:04.512Z,6.00
2022-08-10T00:20:32.664Z,6.00
2022-08-10T00:23:00.708Z,7.00
2022-08-10T00:25:28.972Z,5.00
2022-08-10T00:28:03.241Z,5.00
2022-08-10T00:30:33.275Z,5.00
2022-08-10T00:33:01.306Z,7.00
2022-08-10T00:35:29.466Z,5.00
2022-08-10T00:37:57.983Z,6.00
2022-08-10T00:40:37.057Z,6.00
2022-08-10T00:43:06.216Z,6.60
2022-08-10T00:45:35.705Z,6.00
2022-08-10T00:48:03.794Z,6.00
2022-08-10T00:50:31.874Z,6.60
2022-08-10T00:52:59.921Z,7.00
2022-08-10T00:55:28.294Z,6.00
2022-08-10T00:57:56.377Z,6.33
2022-08-10T01:00:24.752Z,6.00
2022-08-10T01:02:54.254Z,5.40
2022-08-10T01:05:22.392Z,6.00
2022-08-10T01:08:08.901Z,5.60
2022-08-10T01:10:42.516Z,6.00
2022-08-10T01:13:13.334Z,8.00
2022-08-10T01:15:47.476Z,6.75
2022-08-10T01:18:19.874Z,6.00
2022-08-10T01:20:54.132Z,7.00
2022-08-10T01:23:47.480Z,5.80
2022-08-10T01:26:41.309Z,6.00
2022-08-10T01:29:42.173Z,7.75
2022-08-10T01:32:12.704Z,7.50
2022-08-10T01:34:44.242Z,6.50
2022-08-10T01:37:14.564Z,7.40
2022-08-10T01:39:44.954Z,8.00
2022-08-10T01:42:14.451Z,7.50
2022-08-10T01:44:45.511Z,8.00
2022-08-10T01:47:34.696Z,7.50
2022-08-10T01:50:07.035Z,9.00
2022-08-10T01:52:35.216Z,6.60
2022-08-10T01:55:03.379Z,8.25
2022-08-10T01:57:32.512Z,7.40
2022-08-10T02:00:02.753Z,8.00
2022-08-10T02:02:34.705Z,7.40
2022-08-10T02:05:03.676Z,8.00
2022-08-10T02:07:31.775Z,7.50
2022-08-10T02:10:03.011Z,6.40
2022-08-10T02:12:32.571Z,8.00
2022-08-10T02:15:02.184Z,7.00
2022-08-10T02:17:58.637Z,7.50
2022-08-10T02:20:22.433Z,7.00
2022-08-10T02:22:51.469Z,7.00
2022-08-10T02:25:41.448Z,6.00
2022-08-10T02:28:08.388Z,7.00
2022-08-10T02:30:36.460Z,6.00
2022-08-10T02:33:04.518Z,10.50
2022-08-10T02:35:54.584Z,6.60
2022-08-10T02:38:58.899Z,9.00
2022-08-10T02:45:02.450Z,9.00
2022-08-10T02:45:23.047Z,8.00
2022-08-10T02:46:54.961Z,6.40
2022-08-10T02:49:23.896Z,7.00
2022-08-10T02:52:08.977Z,7.00
2022-08-10T02:54:39.969Z,9.00
2022-08-10T02:57:10.246Z,6.25
2022-08-10T02:59:41.055Z,6.25
2022-08-10T03:02:11.740Z,7.00
2022-08-10T03:04:55.118Z,7.20
2022-08-10T03:07:43.989Z,8.00
2022-08-10T03:10:14.980Z,7.60
2022-08-10T03:12:43.506Z,6.25
2022-08-10T03:15:16.001Z,7.00
2022-08-10T03:17:57.881Z,7.00
2022-08-10T03:20:34.134Z,6.60
2022-08-10T03:23:06.601Z,7.50
2022-08-10T03:25:34.666Z,8.50
2022-08-10T03:28:02.748Z,6.80
2022-08-10T03:30:33.592Z,8.75
2022-08-10T03:33:02.471Z,7.00
2022-08-10T03:35:30.529Z,7.00
2022-08-10T03:38:00.053Z,6.60
2022-08-10T03:40:45.492Z,6.75
2022-08-10T03:43:16.137Z,7.75
2022-08-10T03:45:55.091Z,9.00
2022-08-10T03:48:24.572Z,7.80
2022-08-10T03:51:01.250Z,7.00
2022-08-10T03:54:06.192Z,6.60
2022-08-10T03:56:28.428Z,8.00
2022-08-10T03:58:59.444Z,9.00
2022-08-10T04:02:45.904Z,6.00
2022-08-10T04:04:20.863Z,7.00
2022-08-10T04:06:54.428Z,6.00
2022-08-10T04:09:22.609Z,7.00
2022-08-10T04:11:52.046Z,7.00
2022-08-10T04:14:38.115Z,7.40
2022-08-10T04:17:13.391Z,7.60
2022-08-10T04:19:44.214Z,6.20
2022-08-10T04:22:16.102Z,7.00
2022-08-10T04:24:44.167Z,8.00
2022-08-10T04:27:13.593Z,8.00
2022-08-10T04:29:41.651Z,7.00
2022-08-10T04:32:10.633Z,8.00
2022-08-10T04:34:38.814Z,6.00
2022-08-10T04:37:09.207Z,6.75
2022-08-10T04:39:37.565Z,8.25
2022-08-10T04:42:51.853Z,8.00
2022-08-10T04:45:21.259Z,8.00
2022-08-10T04:48:40.723Z,8.40
2022-08-10T04:50:57.342Z,6.00
2022-08-10T04:53:27.730Z,7.00
2022-08-10T04:55:55.794Z,8.75
2022-08-10T04:58:23.841Z,6.25
2022-08-10T05:00:53.367Z,8.00
2022-08-10T05:03:21.466Z,8.00
2022-08-10T05:05:49.531Z,7.00
2022-08-10T05:08:20.917Z,6.00
2022-08-10T05:10:48.982Z,7.00
2022-08-10T05:13:17.018Z,7.50
2022-08-10T05:15:45.964Z,6.50
2022-08-10T05:18:15.361Z,7.80
2022-08-10T05:20:46.193Z,6.40
2022-08-10T05:23:16.470Z,7.60
2022-08-10T05:25:44.544Z,6.00
2022-08-10T05:28:12.596Z,9.00
2022-08-10T05:30:40.756Z,8.00
2022-08-10T05:33:09.381Z,8.00
2022-08-10T05:35:55.366Z,7.40
2022-08-10T05:38:27.349Z,7.00
2022-08-10T05:40:55.429Z,7.60
2022-08-10T05:43:24.122Z,7.67
2022-08-10T05:46:17.101Z,7.00
2022-08-10T05:48:59.079Z,6.00
2022-08-10T05:51:30.516Z,8.00
2022-08-10T05:54:04.927Z,5.00
2022-08-10T05:56:53.666Z,5.40
2022-08-10T06:00:33.588Z,5.00
2022-08-10T06:02:33.116Z,5.00
2022-08-10T06:04:59.769Z,8.60
2022-08-10T06:07:29.246Z,5.00
2022-08-10T06:09:59.191Z,7.50
2022-08-10T06:12:30.916Z,6.00
2022-08-10T06:15:06.022Z,5.00
2022-08-10T06:17:38.474Z,5.00
2022-08-10T06:20:07.613Z,6.00
2022-08-10T06:22:37.191Z,5.40
2022-08-10T06:25:51.078Z,6.25
2022-08-10T06:27:54.165Z,5.00
2022-08-10T06:30:22.539Z,5.00
2022-08-10T06:32:50.810Z,5.00
2022-08-10T06:35:19.172Z,6.00
2022-08-10T06:37:51.553Z,4.00
2022-08-10T06:40:20.283Z,5.60
2022-08-10T06:42:49.385Z,6.00
2022-08-10T06:45:18.928Z,5.00
2022-08-10T06:47:48.039Z,5.00
2022-08-10T06:50:44.473Z,6.20
2022-08-10T06:53:11.408Z,4.00
2022-08-10T06:55:55.070Z,4.50
2022-08-10T06:58:27.057Z,4.00
2022-08-10T07:00:55.594Z,3.75
2022-08-10T07:03:25.457Z,5.00
2022-08-10T07:05:53.717Z,3.67
2022-08-10T07:08:23.160Z,4.00
2022-08-10T07:10:51.269Z,2.60
2022-08-10T07:14:16.505Z,2.75
2022-08-10T07:16:11.070Z,4.00
2022-08-10T07:18:39.130Z,2.50
2022-08-10T07:21:07.421Z,4.00
2022-08-10T07:23:58.806Z,3.00
2022-08-10T07:26:25.077Z,3.00
2022-08-10T07:28:53.125Z,2.00
2022-08-10T07:31:54.344Z,3.50
2022-08-10T07:34:10.086Z,4.00
2022-08-10T07:36:38.189Z,4.00
2022-08-10T07:39:07.650Z,3.60
2022-08-10T07:41:35.802Z,4.00
2022-08-10T07:44:04.349Z,6.80
2022-08-10T07:46:32.542Z,2.50
2022-08-10T07:49:02.222Z,2.60
2022-08-10T07:51:43.264Z,3.00
2022-08-10T07:54:15.869Z,3.75
2022-08-10T07:56:49.190Z,4.40
2022-08-10T07:59:18.691Z,3.50
2022-08-10T08:01:50.493Z,4.60
2022-08-10T08:04:19.056Z,4.00
2022-08-10T08:06:47.308Z,3.60
2022-08-10T08:09:16.765Z,4.00
2022-08-10T08:11:45.284Z,3.40
2022-08-10T08:14:13.421Z,5.00
2022-08-10T08:16:43.792Z,4.00
2022-08-10T08:19:28.555Z,3.00
2022-08-10T08:24:06.967Z,2.75
2022-08-10T08:24:49.316Z,3.00
2022-08-10T08:27:20.941Z,5.00
2022-08-10T08:29:50.369Z,3.60
2022-08-10T08:32:22.457Z,3.00
2022-08-10T08:34:51.329Z,4.20
2022-08-10T08:38:32.071Z,3.00
2022-08-10T08:40:12.109Z,4.40
2022-08-10T08:42:53.333Z,4.00
2022-08-10T08:45:25.269Z,3.00
2022-08-10T08:48:06.875Z,2.40
2022-08-10T08:50:41.374Z,3.00
2022-08-10T08:53:22.290Z,3.60
2022-08-10T08:56:06.096Z,2.60
2022-08-10T08:58:43.351Z,2.60
2022-08-10T09:01:37.913Z,3.50
2022-08-10T09:04:21.077Z,5.00
2022-08-10T09:07:59.469Z,3.50
2022-08-10T09:10:25.340Z,4.00
2022-08-10T09:12:58.745Z,2.00
2022-08-10T09:15:41.047Z,3.00
2022-08-10T09:18:16.055Z,4.00
2022-08-10T09:20:48.007Z,4.00
2022-08-10T09:23:21.821Z,3.00
2022-08-10T09:26:12.828Z,4.00
2022-08-10T09:28:43.138Z,4.00
2022-08-10T09:31:22.472Z,3.00
2022-08-10T09:36:21.165Z,4.25
2022-08-10T09:36:45.725Z,3.40
2022-08-10T09:40:56.532Z,4.00
2022-08-10T09:42:13.186Z,4.00
2022-08-10T09:45:04.822Z,5.00
2022-08-10T09:48:01.423Z,3.00
2022-08-10T09:50:25.975Z,3.00
2022-08-10T09:53:01.058Z,2.20
2022-08-10T09:56:17.410Z,4.00
2022-08-10T09:58:47.001Z,3.00
2022-08-10T10:02:03.956Z,3.00
2022-08-10T10:04:16.877Z,3.00
2022-08-10T10:06:47.886Z,3.00
2022-08-10T10:09:18.587Z,2.00
2022-08-10T10:12:10.011Z,4.00
2022-08-10T10:15:01.894Z,1.75
2022-08-10T10:17:44.891Z,4.00
2022-08-10T10:20:16.461Z,4.00
2022-08-10T10:22:53.635Z,3.00
2022-08-10T10:25:25.134Z,2.20
2022-08-10T10:28:19.965Z,3.00
2022-08-10T10:30:53.205Z,4.00
2022-08-10T10:33:29.036Z,4.00
2022-08-10T10:35:57.154Z,1.20
2022-08-10T10:38:28.358Z,3.80
2022-08-10T10:41:01.720Z,5.00
2022-08-10T10:43:37.645Z,4.00
2022-08-10T10:46:09.994Z,3.00
2022-08-10T10:48:43.782Z,3.00
2022-08-10T10:51:16.213Z,3.00
2022-08-10T10:53:48.070Z,3.00
2022-08-10T10:56:19.980Z,4.00
2022-08-10T10:58:54.207Z,4.00
2022-08-10T11:01:34.105Z,3.00
2022-08-10T11:04:17.382Z,3.00
2022-08-10T11:06:51.992Z,3.50
2022-08-10T11:10:04.839Z,3.80
2022-08-10T11:12:17.041Z,3.60
2022-08-10T11:14:51.620Z,3.00
2022-08-10T11:17:22.406Z,3.25
2022-08-10T11:20:00.539Z,2.00
2022-08-10T11:22:36.510Z,4.00
2022-08-10T11:25:09.692Z,2.00
2022-08-10T11:27:44.097Z,5.00
2022-08-10T11:30:13.982Z,4.00
2022-08-10T11:32:53.185Z,3.60
2022-08-10T11:35:31.614Z,4.00
2022-08-10T11:38:28.645Z,2.00
2022-08-10T11:41:12.863Z,2.50
2022-08-10T11:43:53.002Z,3.40
2022-08-10T11:46:28.516Z,2.40
2022-08-10T11:49:04.076Z,4.33
2022-08-10T11:51:43.394Z,5.00
2022-08-10T11:54:15.519Z,6.00
2022-08-10T11:56:48.133Z,4.00
2022-08-10T11:59:33.956Z,5.25
2022-08-10T12:02:02.106Z,4.80
2022-08-10T12:04:30.214Z,4.75
2022-08-10T12:06:59.681Z,5.00
2022-08-10T12:10:10.645Z,5.00
2022-08-10T12:12:16.088Z,6.80
2022-08-10T12:14:47.544Z,5.00
2022-08-10T12:17:18.196Z,6.50
2022-08-10T12:20:01.225Z,6.20
2022-08-10T12:22:37.428Z,5.60
2022-08-10T12:25:08.554Z,7.00
2022-08-10T12:27:40.022Z,8.00
2022-08-10T12:30:09.046Z,6.00
2022-08-10T12:32:42.714Z,6.25
2022-08-10T12:35:17.293Z,6.60
2022-08-10T12:37:57.299Z,7.40
2022-08-10T12:40:36.127Z,7.00
2022-08-10T12:44:05.390Z,6.00
2022-08-10T12:46:05.826Z,5.25
2022-08-10T12:48:37.355Z,6.00
2022-08-10T12:51:07.949Z,7.20
2022-08-10T12:53:45.413Z,7.00
2022-08-10T12:56:16.713Z,7.00
2022-08-10T12:59:00.180Z,7.00
2022-08-10T13:02:07.347Z,7.00
2022-08-10T13:04:23.349Z,8.00
2022-08-10T13:06:52.400Z,7.80
2022-08-10T13:09:23.819Z,5.50
2022-08-10T13:12:37.876Z,8.00
2022-08-10T13:14:49.268Z,8.00
2022-08-10T13:17:22.224Z,8.00
2022-08-10T13:19:54.614Z,6.33
2022-08-10T13:22:25.401Z,7.00
2022-08-10T13:24:56.146Z,8.00
2022-08-10T13:28:00.806Z,7.00
2022-08-10T13:30:15.706Z,8.80
2022-08-10T13:32:49.416Z,7.60
2022-08-10T13:35:18.934Z,7.00
2022-08-10T13:37:47.811Z,5.00
2022-08-10T13:40:19.564Z,7.00
2022-08-10T13:42:48.598Z,7.00
2022-08-10T13:45:20.336Z,7.20
2022-08-10T13:47:51.294Z,7.00
2022-08-10T13:50:33.084Z,7.50
2022-08-10T13:53:03.828Z,35.00
2022-08-10T13:55:53.442Z,6.60
2022-08-10T13:58:24.366Z,8.00
2022-08-10T14:00:52.467Z,7.00
2022-08-10T14:03:20.538Z,7.60
2022-08-10T14:05:51.705Z,8.00
2022-08-10T14:08:20.909Z,7.00
2022-08-10T14:11:09.690Z,8.00
2022-08-10T14:13:40.698Z,8.40
2022-08-10T14:16:09.488Z,8.00
2022-08-10T14:18:37.536Z,7.40
2022-08-10T14:21:05.878Z,8.40
2022-08-10T14:23:35.458Z,8.00
2022-08-10T14:26:08.805Z,7.75
2022-08-10T14:28:38.411Z,7.00
2022-08-10T14:31:07.587Z,8.00
2022-08-10T14:33:36.747Z,7.60
2022-08-10T14:36:05.236Z,8.00
2022-08-10T14:38:49.863Z,9.00
2022-08-10T14:42:01.253Z,8.40
2022-08-10T14:44:13.565Z,8.00
2022-08-10T14:46:44.319Z,8.00
2022-08-10T14:49:25.576Z,7.00
2022-08-10T14:51:58.549Z,8.60
2022-08-10T14:54:29.592Z,8.00
2022-08-10T14:57:11.081Z,8.80
2022-08-10T15:00:21.056Z,8.00
2022-08-10T15:02:38.493Z,8.00
2022-08-10T15:05:09.389Z,10.00
2022-08-10T15:07:37.848Z,8.00
2022-08-10T15:10:07.306Z,9.00
2022-08-10T15:12:38.428Z,8.00
2022-08-10T15:15:08.804Z,7.75
2022-08-10T15:17:39.634Z,10.67
2022-08-10T15:20:14.853Z,8.00
2022-08-10T15:22:47.060Z,8.00
2022-08-10T15:25:24.779Z,10.00
2022-08-10T15:28:08.170Z,8.50
2022-08-10T15:30:40.856Z,10.60
2022-08-10T15:34:02.178Z,8.80
2022-08-10T15:36:43.823Z,7.00
2022-08-10T15:40:24.437Z,7.75
2022-08-10T15:42:21.042Z,8.40
2022-08-10T15:44:51.081Z,10.00
2022-08-10T15:47:23.201Z,9.00
2022-08-10T15:49:53.806Z,8.00
2022-08-10T15:52:59.991Z,7.50
2022-08-10T15:55:44.037Z,9.00
2022-08-10T15:58:06.587Z,11.00
2022-08-10T16:00:38.502Z,10.80
2022-08-10T16:03:13.143Z,10.00
2022-08-10T16:06:02.165Z,9.00
2022-08-10T16:08:37.743Z,10.00
2022-08-10T16:11:27.769Z,10.00
2022-08-10T16:14:11.739Z,10.40
2022-08-10T16:16:41.294Z,9.00
2022-08-10T16:19:22.322Z,7.60
2022-08-10T16:21:56.385Z,9.00
2022-08-10T16:24:24.456Z,9.60
2022-08-10T16:26:53.085Z,10.00
2022-08-10T16:29:22.410Z,8.33
2022-08-10T16:31:53.892Z,9.00
2022-08-10T16:34:22.219Z,9.00
2022-08-10T16:36:52.197Z,9.25
2022-08-10T16:39:58.234Z,8.00
2022-08-10T16:42:10.318Z,8.00
2022-08-10T16:44:40.557Z,8.20
2022-08-10T16:47:10.014Z,8.40
2022-08-10T16:49:39.519Z,8.80
2022-08-10T16:52:07.753Z,9.50
2022-08-10T16:54:36.169Z,10.40
2022-08-10T16:57:05.737Z,10.00
2022-08-10T16:59:37.764Z,7.00
2022-08-10T17:02:06.074Z,8.00
2022-08-10T17:04:35.898Z,9.00
2022-08-10T17:07:06.252Z,9.00
2022-08-10T17:09:36.417Z,9.00
2022-08-10T17:12:10.377Z,9.25
2022-08-10T17:14:39.241Z,8.00
2022-08-10T17:17:07.948Z,10.00
2022-08-10T17:19:39.348Z,6.40
2022-08-10T17:22:11.387Z,8.75
2022-08-10T17:24:44.243Z,9.00
2022-08-10T17:28:05.182Z,8.00
2022-08-10T17:30:04.266Z,7.00
2022-08-10T17:32:44.086Z,9.00
2022-08-10T17:35:16.797Z,8.00
2022-08-10T17:37:48.586Z,8.00
2022-08-10T17:40:18.163Z,7.40
2022-08-10T17:42:46.825Z,9.00
2022-08-10T17:45:20.918Z,8.00
2022-08-10T17:48:06.768Z,9.20
2022-08-10T17:50:36.957Z,8.00
2022-08-10T17:53:06.718Z,10.00
2022-08-10T17:55:35.541Z,7.00
2022-08-10T17:58:03.854Z,5.00
2022-08-10T18:00:32.021Z,8.00
2022-08-10T18:03:00.105Z,6.40
2022-08-10T18:05:28.247Z,6.40
2022-08-10T18:07:57.670Z,6.00
2022-08-10T18:10:26.070Z,6.00
2022-08-10T18:12:55.118Z,7.00
2022-08-10T18:15:24.674Z,7.00
2022-08-10T18:17:59.269Z,5.20
2022-08-10T18:20:31.906Z,5.00
2022-08-10T18:23:01.338Z,6.00
2022-08-10T18:25:32.108Z,5.50
2022-08-10T18:28:03.604Z,3.80
2022-08-10T18:30:36.325Z,6.50
2022-08-10T18:33:04.853Z,5.00
2022-08-10T18:35:34.962Z,6.20
2022-08-10T18:38:04.864Z,4.00
2022-08-10T18:40:35.636Z,4.40
2022-08-10T18:43:10.010Z,5.00
2022-08-10T18:45:55.297Z,6.75
2022-08-10T18:48:23.399Z,4.20
2022-08-10T18:50:52.102Z,7.00
2022-08-10T18:53:26.396Z,4.60
2022-08-10T18:56:10.279Z,3.00
2022-08-10T18:58:50.034Z,6.00
2022-08-10T19:01:44.376Z,5.00
2022-08-10T19:04:19.092Z,5.00
2022-08-10T19:07:04.308Z,4.40
2022-08-10T19:09:48.335Z,6.60
2022-08-10T19:12:37.877Z,4.25
2022-08-10T19:15:15.308Z,5.00
2022-08-10T19:18:04.578Z,5.00
2022-08-10T19:20:37.159Z,5.60
2022-08-10T19:23:15.313Z,3.60
2022-08-10T19:26:43.363Z,5.00
2022-08-10T19:28:39.685Z,4.00
2022-08-10T19:31:11.072Z,6.00
2022-08-10T19:33:45.825Z,5.00
2022-08-10T19:36:17.412Z,5.00
2022-08-10T19:38:53.681Z,4.00
2022-08-10T19:41:32.096Z,6.25
2022-08-10T19:44:13.781Z,3.60
2022-08-10T19:46:43.952Z,4.40
2022-08-10T19:49:17.546Z,6.00
2022-08-10T19:51:50.635Z,4.33
2022-08-10T19:54:21.889Z,6.25
2022-08-10T19:56:56.296Z,5.00
2022-08-10T20:00:15.648Z,4.40
2022-08-10T20:02:22.802Z,5.00
2022-08-10T20:04:57.277Z,4.00
2022-08-10T20:07:31.229Z,4.40
2022-08-10T20:10:01.079Z,6.00
2022-08-10T20:12:35.890Z,4.00
2022-08-10T20:15:07.727Z,6.00
2022-08-10T20:17:52.685Z,4.40
2022-08-10T20:20:30.634Z,4.00
2022-08-10T20:23:05.497Z,5.00
2022-08-10T20:25:33.575Z,4.25
2022-08-10T20:28:06.461Z,4.00
2022-08-10T20:30:35.804Z,4.80
2022-08-10T20:33:09.051Z,4.00
2022-08-10T20:35:48.619Z,4.00
2022-08-10T20:38:21.107Z,4.80
2022-08-10T20:40:58.936Z,4.25
2022-08-10T20:43:34.437Z,4.00
2022-08-10T20:46:08.933Z,5.40
2022-08-10T20:48:39.449Z,4.40
2022-08-10T20:51:09.409Z,4.60
2022-08-10T20:53:43.644Z,5.75
2022-08-10T20:56:15.897Z,4.40
2022-08-10T20:59:09.073Z,4.00
2022-08-10T21:02:06.894Z,4.00
2022-08-10T21:04:42.368Z,4.25
2022-08-10T21:08:06.119Z,5.00
2022-08-10T21:10:57.677Z,6.00
2022-08-10T21:13:35.379Z,5.00
2022-08-10T21:16:13.126Z,4.40
2022-08-10T21:18:55.360Z,5.00
2022-08-10T21:21:41.545Z,4.80
2022-08-10T21:24:11.831Z,4.60
2022-08-10T21:26:45.559Z,5.40
2022-08-10T21:32:12.585Z,4.00
2022-08-10T21:34:54.212Z,3.00
2022-08-10T21:37:24.824Z,4.00
2022-08-10T21:40:32.263Z,5.00
2022-08-10T21:43:44.070Z,5.40
2022-08-10T21:46:35.681Z,5.00
2022-08-10T21:49:36.805Z,5.00
2022-08-10T21:52:27.524Z,5.00
2022-08-10T21:55:24.060Z,4.25
2022-08-10T21:58:32.231Z,5.00
2022-08-10T22:01:31.807Z,4.50
2022-08-10T22:04:27.054Z,4.20
2022-08-10T22:07:12.469Z,4.00
2022-08-10T22:10:01.380Z,4.00
2022-08-10T22:12:50.812Z,5.00
2022-08-10T22:16:03.519Z,3.75
2022-08-10T22:18:58.845Z,3.25
2022-08-10T22:21:59.601Z,5.00
2022-08-10T22:24:56.602Z,4.00
2022-08-10T22:27:48.021Z,5.00
2022-08-10T22:30:34.874Z,5.60
2022-08-10T22:31:24.739Z,4.60
2022-08-10T22:33:33.262Z,5.20
2022-08-10T22:36:35.173Z,4.40
2022-08-10T22:40:07.208Z,5.00
2022-08-10T22:42:58.076Z,5.00
2022-08-10T22:45:41.092Z,4.00
2022-08-10T22:48:26.628Z,4.00
2022-08-10T22:51:00.955Z,4.00
2022-08-10T22:53:51.662Z,5.20
2022-08-10T22:56:38.685Z,4.75
2022-08-10T22:59:06.980Z,6.00
2022-08-10T23:02:08.041Z,5.20
2022-08-10T23:04:38.366Z,6.60
2022-08-10T23:07:12.299Z,5.50
2022-08-10T23:09:42.321Z,5.00
2022-08-10T23:12:14.178Z,5.60
2022-08-10T23:14:43.183Z,5.00
2022-08-10T23:18:00.823Z,3.80
2022-08-10T23:20:30.387Z,4.00
2022-08-10T23:23:07.446Z,4.00
2022-08-10T23:25:56.125Z,4.00
2022-08-10T23:28:38.898Z,5.00
2022-08-10T23:31:14.922Z,4.00
2022-08-10T23:33:43.008Z,4.60
2022-08-10T23:36:33.595Z,5.00
2022-08-10T23:39:26.660Z,5.00
2022-08-10T23:41:52.930Z,5.00
2022-08-10T23:44:22.695Z,4.00
2022-08-10T23:46:50.782Z,5.00
2022-08-10T23:49:18.857Z,4.40
2022-08-10T23:51:56.517Z,4.25
2022-08-10T23:54:25.186Z,4.00
2022-08-10T23:56:55.443Z,6.00
2022-08-10T23:59:25.260Z,5.75
